createdAt,value
2018-06-12T00:01:25.527Z,36.50
2018-06-12T00:03:52.836Z,36.10
2018-06-12T00:06:20.140Z,35.97
2018-06-12T00:08:47.554Z,38.60
2018-06-12T00:11:14.829Z,38.70
2018-06-12T00:13:42.132Z,37.03
2018-06-12T00:16:09.416Z,37.83
2018-06-12T00:18:36.695Z,37.60
2018-06-12T00:21:04.039Z,38.80
2018-06-12T00:23:31.352Z,39.00
2018-06-12T00:25:58.700Z,37.10
2018-06-12T00:28:25.952Z,36.30
2018-06-12T00:30:53.301Z,38.20
2018-06-12T00:33:20.596Z,36.83
2018-06-12T00:35:47.868Z,38.30
2018-06-12T00:38:15.215Z,36.90
2018-06-12T00:40:42.507Z,38.10
2018-06-12T00:43:10.144Z,38.07
2018-06-12T00:45:37.464Z,35.50
2018-06-12T00:48:04.799Z,37.53
2018-06-12T00:50:32.100Z,38.73
2018-06-12T00:52:59.412Z,37.20
2018-06-12T00:55:26.749Z,36.97
2018-06-12T00:57:54.042Z,35.67
2018-06-12T01:00:21.328Z,36.70
2018-06-12T01:02:48.633Z,37.10
2018-06-12T01:05:15.923Z,35.50
2018-06-12T01:07:43.264Z,35.07
2018-06-12T01:10:10.541Z,34.37
2018-06-12T01:12:38.167Z,33.87
2018-06-12T01:15:05.460Z,33.93
2018-06-12T01:17:32.749Z,35.00
2018-06-12T01:20:00.018Z,35.50
2018-06-12T01:22:27.303Z,34.27
2018-06-12T01:24:54.527Z,32.50
2018-06-12T01:27:21.765Z,32.17
2018-06-12T01:29:49.110Z,35.13
2018-06-12T01:32:16.357Z,33.30
2018-06-12T01:34:43.618Z,32.87
2018-06-12T01:37:10.832Z,33.70
2018-06-12T01:39:38.093Z,33.20
2018-06-12T01:42:05.425Z,33.60
2018-06-12T01:44:32.667Z,33.37
2018-06-12T01:46:59.929Z,32.30
2018-06-12T01:49:27.166Z,34.80
2018-06-12T01:51:54.407Z,33.57
2018-06-12T01:54:21.670Z,31.90
2018-06-12T01:56:48.904Z,32.50
2018-06-12T01:59:16.168Z,33.37
2018-06-12T02:01:43.446Z,32.13
2018-06-12T02:04:10.678Z,32.67
2018-06-12T02:06:37.925Z,32.77
2018-06-12T02:09:05.631Z,34.10
2018-06-12T02:11:32.920Z,32.57
2018-06-12T02:14:00.196Z,33.40
2018-06-12T02:16:27.582Z,34.50
2018-06-12T02:18:54.841Z,33.67
2018-06-12T02:21:22.088Z,33.40
2018-06-12T02:23:49.361Z,32.80
2018-06-12T02:26:16.609Z,34.73
2018-06-12T02:28:43.889Z,33.90
2018-06-12T02:31:11.147Z,33.53
2018-06-12T02:33:38.429Z,34.07
2018-06-12T02:36:05.711Z,35.70
2018-06-12T02:38:32.967Z,34.23
2018-06-12T02:41:00.251Z,34.60
2018-06-12T02:43:27.550Z,32.37
2018-06-12T02:45:54.810Z,32.37
2018-06-12T02:48:22.106Z,33.33
2018-06-12T02:50:49.378Z,32.47
2018-06-12T02:53:16.657Z,34.80
2018-06-12T02:55:43.934Z,34.77
2018-06-12T02:58:11.226Z,34.60
2018-06-12T03:00:38.498Z,35.70
2018-06-12T03:03:05.786Z,33.50
2018-06-12T03:05:33.035Z,35.40
2018-06-12T03:08:00.333Z,32.80
2018-06-12T03:10:27.629Z,35.37
2018-06-12T03:12:54.913Z,35.50
2018-06-12T03:15:22.223Z,36.10
2018-06-12T03:17:49.493Z,33.90
2018-06-12T03:20:16.913Z,31.53
2018-06-12T03:22:44.220Z,29.20
2018-06-12T03:25:11.510Z,28.20
2018-06-12T03:27:38.772Z,27.27
2018-06-12T03:30:06.043Z,26.93
2018-06-12T03:32:33.303Z,24.73
2018-06-12T03:35:00.583Z,25.53
2018-06-12T03:37:28.016Z,23.70
2018-06-12T03:39:55.294Z,21.47
2018-06-12T03:42:22.566Z,22.80
2018-06-12T03:44:49.835Z,21.17
2018-06-12T03:47:17.094Z,25.77
2018-06-12T03:49:44.379Z,23.07
2018-06-12T03:52:11.714Z,21.47
2018-06-12T03:54:39.006Z,22.20
2018-06-12T03:57:06.286Z,24.37
2018-06-12T03:59:33.569Z,22.90
2018-06-12T04:02:01.406Z,22.60
2018-06-12T04:04:28.689Z,22.00
2018-06-12T04:06:55.965Z,21.20
2018-06-12T04:09:23.265Z,22.40
2018-06-12T04:11:50.554Z,20.10
2018-06-12T04:14:17.850Z,21.03
2018-06-12T04:16:45.133Z,21.80
2018-06-12T04:19:12.382Z,19.77
2018-06-12T04:21:39.706Z,21.07
2018-06-12T04:24:07.013Z,19.97
2018-06-12T04:26:34.286Z,19.43
2018-06-12T04:29:01.690Z,18.30
2018-06-12T04:31:28.978Z,18.03
2018-06-12T04:33:56.272Z,20.27
2018-06-12T04:36:23.586Z,19.57
2018-06-12T04:38:50.871Z,19.97
2018-06-12T04:41:18.118Z,19.20
2018-06-12T04:43:45.429Z,18.97
2018-06-12T04:46:12.718Z,17.93
2018-06-12T04:48:39.994Z,19.00
2018-06-12T04:51:07.250Z,19.70
2018-06-12T04:53:34.493Z,18.87
2018-06-12T04:56:01.787Z,16.67
2018-06-12T04:58:29.045Z,17.13
2018-06-12T05:00:56.312Z,17.70
2018-06-12T05:03:23.570Z,15.83
2018-06-12T05:05:50.955Z,14.33
2018-06-12T05:08:18.256Z,13.70
2018-06-12T05:10:45.503Z,14.10
2018-06-12T05:13:12.799Z,14.27
2018-06-12T05:15:40.071Z,14.13
2018-06-12T05:18:07.357Z,14.90
2018-06-12T05:20:34.727Z,17.97
2018-06-12T05:23:02.123Z,15.60
2018-06-12T05:25:29.481Z,13.30
2018-06-12T05:27:56.755Z,12.50
2018-06-12T05:30:24.022Z,12.60
2018-06-12T05:32:51.298Z,12.33
2018-06-12T05:35:18.565Z,11.90
2018-06-12T05:37:45.837Z,12.47
2018-06-12T05:40:13.115Z,12.70
2018-06-12T05:42:41.366Z,12.67
2018-06-12T05:45:08.666Z,12.07
2018-06-12T05:47:35.946Z,12.23
2018-06-12T05:50:03.282Z,11.13
2018-06-12T05:52:30.521Z,11.80
2018-06-12T05:54:57.793Z,10.70
2018-06-12T05:57:25.037Z,11.57
2018-06-12T05:59:52.320Z,9.90
2018-06-12T06:02:19.613Z,10.43
2018-06-12T06:04:46.957Z,9.83
2018-06-12T06:07:14.205Z,10.70
2018-06-12T06:09:41.482Z,10.40
2018-06-12T06:12:08.768Z,10.90
2018-06-12T06:14:36.057Z,11.43
2018-06-12T06:17:03.458Z,12.20
2018-06-12T06:19:30.710Z,10.60
2018-06-12T06:21:58.001Z,11.50
2018-06-12T06:24:25.258Z,11.07
2018-06-12T06:26:52.553Z,11.30
2018-06-12T06:29:19.833Z,11.30
2018-06-12T06:31:47.086Z,11.60
2018-06-12T06:34:14.358Z,10.70
2018-06-12T06:36:41.614Z,11.50
2018-06-12T06:39:08.885Z,11.50
2018-06-12T06:41:36.155Z,10.67
2018-06-12T06:44:03.472Z,11.53
2018-06-12T06:46:30.712Z,11.43
2018-06-12T06:48:57.966Z,11.50
2018-06-12T06:51:25.189Z,12.10
2018-06-12T06:53:52.433Z,11.13
2018-06-12T06:56:19.654Z,11.43
2018-06-12T06:58:46.948Z,11.00
2018-06-12T07:01:14.153Z,10.87
2018-06-12T07:03:41.404Z,10.90
2018-06-12T07:06:08.687Z,10.90
2018-06-12T07:08:35.969Z,11.30
2018-06-12T07:11:03.226Z,11.50
2018-06-12T07:13:30.514Z,11.77
2018-06-12T07:15:57.771Z,10.80
2018-06-12T07:18:25.069Z,11.80
2018-06-12T07:21:09.493Z,11.80
2018-06-12T07:23:36.790Z,11.50
2018-06-12T07:26:04.060Z,14.17
2018-06-12T07:28:31.325Z,12.70
2018-06-12T07:30:58.627Z,12.10
2018-06-12T07:33:25.886Z,12.77
2018-06-12T07:35:53.190Z,11.87
2018-06-12T07:38:20.473Z,13.53
2018-06-12T07:40:47.799Z,13.73
2018-06-12T07:43:15.089Z,12.50
2018-06-12T07:45:42.358Z,13.70
2018-06-12T07:48:09.657Z,14.57
2018-06-12T07:50:36.922Z,13.57
2018-06-12T07:53:04.226Z,13.63
2018-06-12T07:55:31.527Z,15.07
2018-06-12T07:57:58.809Z,14.50
2018-06-12T08:00:26.110Z,14.33
2018-06-12T08:02:53.374Z,14.87
2018-06-12T08:05:20.651Z,36.43
2018-06-12T08:07:47.938Z,19.17
2018-06-12T08:10:15.209Z,16.00
2018-06-12T08:12:42.491Z,14.40
2018-06-12T08:15:09.718Z,14.90
2018-06-12T08:17:36.986Z,16.30
2018-06-12T08:20:04.286Z,16.00
2018-06-12T08:22:31.563Z,15.40
2018-06-12T08:24:58.865Z,15.77
2018-06-12T08:27:26.132Z,16.40
2018-06-12T08:29:53.455Z,15.03
2018-06-12T08:32:20.792Z,15.20
2018-06-12T08:34:48.094Z,15.13
2018-06-12T08:37:15.358Z,15.57
2018-06-12T08:39:42.643Z,16.27
2018-06-12T08:42:09.951Z,15.67
2018-06-12T08:44:37.218Z,15.40
2018-06-12T08:47:04.499Z,16.80
2018-06-12T08:49:31.751Z,16.30
2018-06-12T08:51:59.062Z,15.00
2018-06-12T08:54:26.322Z,15.53
2018-06-12T08:56:53.687Z,16.03
2018-06-12T08:59:20.982Z,16.63
2018-06-12T09:01:48.282Z,15.20
2018-06-12T09:04:15.577Z,14.90
2018-06-12T09:06:42.870Z,16.77
2018-06-12T09:09:10.154Z,17.07
2018-06-12T09:11:37.429Z,15.67
2018-06-12T09:14:04.719Z,16.23
2018-06-12T09:16:31.994Z,15.97
2018-06-12T09:18:59.270Z,16.33
2018-06-12T09:21:26.532Z,16.17
2018-06-12T09:23:53.819Z,17.00
2018-06-12T09:26:21.085Z,15.63
2018-06-12T09:28:48.361Z,16.23
2018-06-12T09:31:15.667Z,16.73
2018-06-12T09:33:42.975Z,16.60
2018-06-12T09:36:16.033Z,16.07
2018-06-12T09:38:43.315Z,17.00
2018-06-12T09:41:10.607Z,16.80
2018-06-12T09:43:37.882Z,16.80
2018-06-12T09:46:05.176Z,16.60
2018-06-12T09:48:32.522Z,16.93
2018-06-12T09:50:59.798Z,17.10
2018-06-12T09:53:27.069Z,16.13
2018-06-12T09:55:54.402Z,17.57
2018-06-12T09:58:21.682Z,16.13
2018-06-12T10:00:54.681Z,17.03
2018-06-12T10:03:21.985Z,17.40
2018-06-12T10:05:49.234Z,17.83
2018-06-12T10:08:16.521Z,15.90
2018-06-12T10:10:43.808Z,17.50
2018-06-12T10:13:11.086Z,17.67
2018-06-12T10:15:38.365Z,17.77
2018-06-12T10:18:05.675Z,17.90
2018-06-12T10:20:32.937Z,16.00
2018-06-12T10:23:00.211Z,17.33
2018-06-12T10:25:27.478Z,17.50
2018-06-12T10:27:54.782Z,16.97
2018-06-12T10:30:22.067Z,17.50
2018-06-12T10:32:49.337Z,16.77
2018-06-12T10:35:16.564Z,15.40
2018-06-12T10:37:43.803Z,18.10
2018-06-12T10:40:11.079Z,15.43
2018-06-12T10:42:38.310Z,15.60
2018-06-12T10:45:05.566Z,16.00
2018-06-12T10:47:32.834Z,16.60
2018-06-12T10:50:00.159Z,16.40
2018-06-12T10:52:27.450Z,16.60
2018-06-12T10:54:54.691Z,15.17
2018-06-12T10:57:21.943Z,15.57
2018-06-12T10:59:49.194Z,16.00
2018-06-12T11:02:16.481Z,16.67
2018-06-12T11:04:43.834Z,15.30
2018-06-12T11:07:11.063Z,16.37
2018-06-12T11:09:38.310Z,16.63
2018-06-12T11:12:05.617Z,16.07
2018-06-12T11:14:32.861Z,15.80
2018-06-12T11:17:00.122Z,17.47
2018-06-12T11:19:27.399Z,14.70
2018-06-12T11:21:54.617Z,17.17
2018-06-12T11:24:21.896Z,15.03
2018-06-12T11:26:49.139Z,16.10
2018-06-12T11:29:16.410Z,16.50
2018-06-12T11:31:43.682Z,15.97
2018-06-12T11:34:10.946Z,17.43
2018-06-12T11:36:38.199Z,15.63
2018-06-12T11:39:06.743Z,16.50
2018-06-12T11:41:34.012Z,15.30
2018-06-12T11:44:01.277Z,14.60
2018-06-12T11:46:28.571Z,15.70
2018-06-12T11:48:55.815Z,15.27
2018-06-12T11:51:23.074Z,15.10
2018-06-12T11:53:50.325Z,15.33
2018-06-12T11:56:17.594Z,14.40
2018-06-12T11:58:44.822Z,15.90
2018-06-12T12:01:12.127Z,13.77
2018-06-12T12:03:39.366Z,13.83
2018-06-12T12:06:06.647Z,14.57
2018-06-12T12:08:33.945Z,16.90
2018-06-12T12:11:01.193Z,14.70
2018-06-12T12:13:28.473Z,14.13
2018-06-12T12:15:55.737Z,14.10
2018-06-12T12:18:23.003Z,14.13
2018-06-12T12:20:50.253Z,14.33
2018-06-12T12:23:17.599Z,14.07
2018-06-12T12:25:44.841Z,14.90
2018-06-12T12:28:12.110Z,14.40
2018-06-12T12:30:39.430Z,14.53
2018-06-12T12:33:06.679Z,13.37
2018-06-12T12:35:33.994Z,13.77
2018-06-12T12:38:01.369Z,12.40
2018-06-12T12:40:28.621Z,12.77
2018-06-12T12:42:55.853Z,13.43
2018-06-12T12:45:23.130Z,13.83
2018-06-12T12:47:50.370Z,12.80
2018-06-12T12:50:17.625Z,12.83
2018-06-12T12:52:44.946Z,13.97
2018-06-12T12:55:12.199Z,13.30
2018-06-12T12:57:39.466Z,13.50
2018-06-12T13:00:06.715Z,15.33
2018-06-12T13:02:33.948Z,14.07
2018-06-12T13:05:01.211Z,12.47
2018-06-12T13:07:28.442Z,13.90
2018-06-12T13:09:55.710Z,13.03
2018-06-12T13:12:22.975Z,14.00
2018-06-12T13:14:50.289Z,12.13
2018-06-12T13:17:17.557Z,12.13
2018-06-12T13:19:44.795Z,12.10
2018-06-12T13:22:12.070Z,12.43
2018-06-12T13:24:39.307Z,12.07
2018-06-12T13:27:06.596Z,11.50
2018-06-12T13:29:33.870Z,12.30
2018-06-12T13:32:01.146Z,11.97
2018-06-12T13:34:28.391Z,12.60
2018-06-12T13:36:55.675Z,11.10
2018-06-12T13:39:22.908Z,11.37
2018-06-12T13:41:50.188Z,11.57
2018-06-12T13:44:17.430Z,12.17
2018-06-12T13:46:44.697Z,12.20
2018-06-12T13:49:11.972Z,11.63
2018-06-12T13:51:39.328Z,10.97
2018-06-12T13:54:06.605Z,13.57
2018-06-12T13:56:33.858Z,12.03
2018-06-12T13:59:01.086Z,13.83
2018-06-12T14:01:28.337Z,11.93
2018-06-12T14:03:55.558Z,12.47
2018-06-12T14:06:22.813Z,12.57
2018-06-12T14:08:50.058Z,10.63
2018-06-12T14:11:17.334Z,12.20
2018-06-12T14:13:44.667Z,11.10
2018-06-12T14:16:11.917Z,12.17
2018-06-12T14:18:39.206Z,11.60
2018-06-12T14:21:06.486Z,11.50
2018-06-12T14:23:33.730Z,11.73
2018-06-12T14:26:00.999Z,11.67
2018-06-12T14:28:28.243Z,11.77
2018-06-12T14:30:55.510Z,11.57
2018-06-12T14:33:22.754Z,11.80
2018-06-12T14:35:50.041Z,11.70
2018-06-12T14:38:17.278Z,11.23
2018-06-12T14:40:44.548Z,12.23
2018-06-12T14:43:11.812Z,10.80
2018-06-12T14:45:39.083Z,11.47
2018-06-12T14:48:06.302Z,10.10
2018-06-12T14:50:33.582Z,9.70
2018-06-12T14:53:00.826Z,9.77
2018-06-12T14:55:28.080Z,10.87
2018-06-12T14:57:55.332Z,10.40
2018-06-12T15:00:22.572Z,10.40
2018-06-12T15:02:49.842Z,11.97
2018-06-12T15:05:17.172Z,12.67
2018-06-12T15:07:44.362Z,12.07
2018-06-12T15:10:13.570Z,11.93
2018-06-12T15:12:40.849Z,11.93
2018-06-12T15:15:08.102Z,12.67
2018-06-12T15:17:35.321Z,12.17
2018-06-12T15:20:02.618Z,12.10
2018-06-12T15:22:29.979Z,12.27
2018-06-12T15:24:57.259Z,14.90
2018-06-12T15:27:24.539Z,12.90
2018-06-12T15:29:51.813Z,14.20
2018-06-12T15:32:19.055Z,14.67
2018-06-12T15:34:46.318Z,14.87
2018-06-12T15:37:13.742Z,15.70
2018-06-12T15:39:41.012Z,14.60
2018-06-12T15:42:08.442Z,14.73
2018-06-12T15:44:35.754Z,15.47
2018-06-12T15:47:03.006Z,13.97
2018-06-12T15:49:30.302Z,14.33
2018-06-12T15:51:57.550Z,14.43
2018-06-12T15:54:24.787Z,15.37
2018-06-12T15:56:52.049Z,12.90
2018-06-12T15:59:19.302Z,13.67
2018-06-12T16:01:46.558Z,14.30
2018-06-12T16:04:13.830Z,13.43
2018-06-12T16:06:41.071Z,13.10
2018-06-12T16:09:08.414Z,12.57
2018-06-12T16:11:35.787Z,13.80
2018-06-12T16:14:03.105Z,12.53
2018-06-12T16:16:30.421Z,11.83
2018-06-12T16:18:57.666Z,11.40
2018-06-12T16:21:25.753Z,11.73
2018-06-12T16:23:53.011Z,12.87
2018-06-12T16:26:20.307Z,12.27
2018-06-12T16:28:47.556Z,11.93
2018-06-12T16:31:14.850Z,10.20
2018-06-12T16:33:42.117Z,12.47
2018-06-12T16:36:09.390Z,11.40
2018-06-12T16:38:36.645Z,11.20
2018-06-12T16:41:03.902Z,11.20
2018-06-12T16:43:31.146Z,10.93
2018-06-12T16:45:58.415Z,10.87
2018-06-12T16:48:25.677Z,11.03
2018-06-12T16:50:52.949Z,10.50
2018-06-12T16:53:20.199Z,10.83
2018-06-12T16:55:47.469Z,10.60
2018-06-12T16:58:14.750Z,9.20
2018-06-12T17:00:42.060Z,9.07
2018-06-12T17:03:09.323Z,9.90
2018-06-12T17:05:36.586Z,9.47
2018-06-12T17:08:03.889Z,10.00
2018-06-12T17:10:31.148Z,8.77
2018-06-12T17:12:58.409Z,8.83
2018-06-12T17:15:25.687Z,8.20
2018-06-12T17:17:52.925Z,7.50
2018-06-12T17:20:20.222Z,8.03
2018-06-12T17:22:47.504Z,7.10
2018-06-12T17:25:14.782Z,7.70
2018-06-12T17:27:42.034Z,8.03
2018-06-12T17:30:09.322Z,8.37
2018-06-12T17:32:36.604Z,7.97
2018-06-12T17:35:03.979Z,7.27
2018-06-12T17:37:31.253Z,8.10
2018-06-12T17:39:58.530Z,6.93
2018-06-12T17:42:25.770Z,7.20
2018-06-12T17:44:53.005Z,7.60
2018-06-12T17:47:20.265Z,6.70
2018-06-12T17:49:47.489Z,7.33
2018-06-12T17:52:14.758Z,7.37
2018-06-12T17:54:42.077Z,6.60
2018-06-12T17:57:09.263Z,6.93
2018-06-12T17:59:36.526Z,7.20
2018-06-12T18:02:05.296Z,7.97
2018-06-12T18:04:32.590Z,8.43
2018-06-12T18:06:59.927Z,7.50
2018-06-12T18:09:27.233Z,7.40
2018-06-12T18:11:54.575Z,7.43
2018-06-12T18:14:21.834Z,7.47
2018-06-12T18:16:49.285Z,8.63
2018-06-12T18:19:16.623Z,7.80
2018-06-12T18:21:43.983Z,7.80
2018-06-12T18:24:11.294Z,7.73
2018-06-12T18:26:38.604Z,7.43
2018-06-12T18:29:05.954Z,7.70
2018-06-12T18:31:33.307Z,8.30
2018-06-12T18:34:00.593Z,7.60
2018-06-12T18:36:27.930Z,7.57
2018-06-12T18:38:55.206Z,8.33
2018-06-12T18:41:22.474Z,7.60
2018-06-12T18:43:49.770Z,7.70
2018-06-12T18:46:17.126Z,8.27
2018-06-12T18:48:44.382Z,7.10
2018-06-12T18:51:11.645Z,7.77
2018-06-12T18:53:38.921Z,7.53
2018-06-12T18:56:06.167Z,7.00
2018-06-12T18:58:33.440Z,7.90
2018-06-12T19:01:00.914Z,7.03
2018-06-12T19:03:28.201Z,7.90
2018-06-12T19:05:55.553Z,7.37
2018-06-12T19:08:22.935Z,7.27
2018-06-12T19:10:50.309Z,8.20
2018-06-12T19:13:17.646Z,7.67
2018-06-12T19:15:44.958Z,7.60
2018-06-12T19:18:12.336Z,7.60
2018-06-12T19:20:39.581Z,7.83
2018-06-12T19:23:06.874Z,6.50
2018-06-12T19:25:34.146Z,7.90
2018-06-12T19:28:01.447Z,7.00
2018-06-12T19:30:28.760Z,7.77
2018-06-12T19:32:56.106Z,6.80
2018-06-12T19:35:23.356Z,7.40
2018-06-12T19:37:50.656Z,7.77
2018-06-12T19:40:17.975Z,8.07
2018-06-12T19:42:45.248Z,7.73
2018-06-12T19:45:12.539Z,8.20
2018-06-12T19:47:39.794Z,8.27
2018-06-12T19:50:07.086Z,8.40
2018-06-12T19:52:34.405Z,7.40
2018-06-12T19:55:01.698Z,8.53
2018-06-12T19:57:28.910Z,8.33
2018-06-12T19:59:56.176Z,7.40
2018-06-12T20:02:23.425Z,7.23
2018-06-12T20:04:50.761Z,7.30
2018-06-12T20:07:18.031Z,7.27
2018-06-12T20:09:45.286Z,7.90
2018-06-12T20:12:12.555Z,7.70
2018-06-12T20:14:39.817Z,7.27
2018-06-12T20:17:07.758Z,7.57
2018-06-12T20:19:35.036Z,7.17
2018-06-12T20:22:02.311Z,7.27
2018-06-12T20:24:29.628Z,6.07
2018-06-12T20:26:56.874Z,6.83
2018-06-12T20:29:24.113Z,7.20
2018-06-12T20:31:51.497Z,6.93
2018-06-12T20:34:18.742Z,7.93
2018-06-12T20:36:46.023Z,6.20
2018-06-12T20:39:13.291Z,7.00
2018-06-12T20:41:40.561Z,7.03
2018-06-12T20:44:07.842Z,6.83
2018-06-12T20:46:35.129Z,6.63
2018-06-12T20:49:02.366Z,6.73
2018-06-12T20:51:29.710Z,7.57
2018-06-12T20:53:56.941Z,7.70
2018-06-12T20:56:24.193Z,6.77
2018-06-12T20:58:51.432Z,7.67
2018-06-12T21:01:18.689Z,6.10
2018-06-12T21:03:45.969Z,7.33
2018-06-12T21:06:13.282Z,6.90
2018-06-12T21:08:40.558Z,6.33
2018-06-12T21:11:07.817Z,7.10
2018-06-12T21:13:35.149Z,6.40
2018-06-12T21:16:02.457Z,6.93
2018-06-12T21:18:29.765Z,7.47
2018-06-12T21:20:57.117Z,5.80
2018-06-12T21:23:24.349Z,6.53
2018-06-12T21:25:51.692Z,7.40
2018-06-12T21:28:18.977Z,6.60
2018-06-12T21:30:46.243Z,6.93
2018-06-12T21:33:13.566Z,6.37
2018-06-12T21:35:40.805Z,6.87
2018-06-12T21:38:08.071Z,6.40
2018-06-12T21:40:35.451Z,7.10
2018-06-12T21:43:03.890Z,7.37
2018-06-12T21:45:31.142Z,6.60
2018-06-12T21:47:58.365Z,6.10
2018-06-12T21:50:25.650Z,7.00
2018-06-12T21:52:52.858Z,6.60
2018-06-12T21:55:20.123Z,6.20
2018-06-12T21:57:47.402Z,6.33
2018-06-12T22:00:24.946Z,5.40
2018-06-12T22:02:52.189Z,6.53
2018-06-12T22:05:19.410Z,6.23
2018-06-12T22:07:46.682Z,6.73
2018-06-12T22:10:13.941Z,5.60
2018-06-12T22:12:41.182Z,6.07
2018-06-12T22:15:08.423Z,6.27
2018-06-12T22:17:40.278Z,5.57
2018-06-12T22:20:07.516Z,5.13
2018-06-12T22:22:34.798Z,5.60
2018-06-12T22:25:02.072Z,6.50
2018-06-12T22:27:29.419Z,6.00
2018-06-12T22:29:56.721Z,5.57
2018-06-12T22:32:23.999Z,5.83
2018-06-12T22:34:51.246Z,6.03
2018-06-12T22:37:18.578Z,6.10
2018-06-12T22:39:45.846Z,5.67
2018-06-12T22:42:13.122Z,5.97
2018-06-12T22:44:40.419Z,5.60
2018-06-12T22:47:07.666Z,5.20
2018-06-12T22:49:34.901Z,6.10
2018-06-12T22:52:02.205Z,5.17
2018-06-12T22:54:29.451Z,5.70
2018-06-12T22:56:56.715Z,5.93
2018-06-12T22:59:23.969Z,6.00
2018-06-12T23:01:51.221Z,5.87
2018-06-12T23:04:18.487Z,5.30
2018-06-12T23:06:45.726Z,5.50
2018-06-12T23:09:12.985Z,5.53
2018-06-12T23:11:40.229Z,6.00
2018-06-12T23:14:07.506Z,5.40
2018-06-12T23:16:34.853Z,6.10
2018-06-12T23:19:02.140Z,5.53
2018-06-12T23:21:45.331Z,5.90
2018-06-12T23:24:12.798Z,6.00
2018-06-12T23:26:40.101Z,5.70
2018-06-12T23:29:07.374Z,5.70
2018-06-12T23:31:34.642Z,5.90
2018-06-12T23:34:01.937Z,6.00
2018-06-12T23:36:29.301Z,5.43
2018-06-12T23:38:56.570Z,6.00
2018-06-12T23:41:23.866Z,5.47
2018-06-12T23:43:51.167Z,5.37
2018-06-12T23:46:18.459Z,5.00
2018-06-12T23:48:45.742Z,5.40
2018-06-12T23:51:13.043Z,4.97
2018-06-12T23:53:40.335Z,5.50
2018-06-12T23:56:07.608Z,6.57
2018-06-12T23:58:34.939Z,5.80
